sensor_id;sensor_type;location;lat;lon;timestamp;P1;durP1;ratioP1;P2;durP2;ratioP2
16177;SDS011;8195;51.220;9.746;2023-02-23T00:04:43;36.35;;;29.00;;
16177;SDS011;8195;51.220;9.746;2023-02-23T00:14:43;44.67;;;34.67;;
16177;SDS011;8195;51.220;9.746;2023-02-23T00:24:44;41.28;;;33.10;;
16177;SDS011;8195;51.220;9.746;2023-02-23T00:34:45;49.22;;;37.63;;
16177;SDS011;8195;51.220;9.746;2023-02-23T00:44:45;55.33;;;39.23;;
16177;SDS011;8195;51.220;9.746;2023-02-23T00:54:46;50.78;;;40.10;;
16177;SDS011;8195;51.220;9.746;2023-02-23T01:04:46;56.03;;;42.67;;
16177;SDS011;8195;51.220;9.746;2023-02-23T01:14:47;51.47;;;40.80;;
16177;SDS011;8195;51.220;9.746;2023-02-23T01:24:48;52.50;;;42.20;;
16177;SDS011;8195;51.220;9.746;2023-02-23T01:34:48;57.13;;;41.17;;
16177;SDS011;8195;51.220;9.746;2023-02-23T01:54:53;53.37;;;41.90;;
16177;SDS011;8195;51.220;9.746;2023-02-23T02:04:55;54.40;;;43.40;;
16177;SDS011;8195;51.220;9.746;2023-02-23T02:14:56;60.40;;;45.03;;
16177;SDS011;8195;51.220;9.746;2023-02-23T02:35:11;55.23;;;44.73;;
16177;SDS011;8195;51.220;9.746;2023-02-23T02:45:54;56.40;;;44.10;;
16177;SDS011;8195;51.220;9.746;2023-02-23T02:56:01;60.20;;;44.77;;
16177;SDS011;8195;51.220;9.746;2023-02-23T03:06:04;58.17;;;45.23;;
16177;SDS011;8195;51.220;9.746;2023-02-23T03:36:36;62.13;;;46.30;;
16177;SDS011;8195;51.220;9.746;2023-02-23T03:46:42;59.60;;;45.00;;
16177;SDS011;8195;51.220;9.746;2023-02-23T03:56:47;54.13;;;43.43;;
16177;SDS011;8195;51.220;9.746;2023-02-23T04:06:50;54.13;;;41.07;;
16177;SDS011;8195;51.220;9.746;2023-02-23T04:16:55;58.27;;;43.33;;
16177;SDS011;8195;51.220;9.746;2023-02-23T04:26:56;66.43;;;48.87;;
16177;SDS011;8195;51.220;9.746;2023-02-23T04:36:57;69.35;;;50.83;;
16177;SDS011;8195;51.220;9.746;2023-02-23T04:46:57;78.93;;;55.47;;
16177;SDS011;8195;51.220;9.746;2023-02-23T04:56:58;72.15;;;53.38;;
16177;SDS011;8195;51.220;9.746;2023-02-23T05:06:58;77.18;;;56.70;;
16177;SDS011;8195;51.220;9.746;2023-02-23T05:16:59;71.33;;;51.77;;
16177;SDS011;8195;51.220;9.746;2023-02-23T05:27:00;73.23;;;53.47;;
16177;SDS011;8195;51.220;9.746;2023-02-23T05:37:00;63.63;;;44.97;;
16177;SDS011;8195;51.220;9.746;2023-02-23T05:47:01;63.10;;;49.57;;
16177;SDS011;8195;51.220;9.746;2023-02-23T05:57:02;71.93;;;52.70;;
16177;SDS011;8195;51.220;9.746;2023-02-23T06:07:03;73.97;;;53.23;;
16177;SDS011;8195;51.220;9.746;2023-02-23T06:17:03;74.68;;;54.08;;
16177;SDS011;8195;51.220;9.746;2023-02-23T06:27:04;77.53;;;53.57;;
16177;SDS011;8195;51.220;9.746;2023-02-23T06:37:04;72.47;;;52.73;;
16177;SDS011;8195;51.220;9.746;2023-02-23T06:47:05;72.83;;;53.43;;
16177;SDS011;8195;51.220;9.746;2023-02-23T06:57:06;67.60;;;51.37;;
16177;SDS011;8195;51.220;9.746;2023-02-23T07:07:10;70.73;;;51.70;;
16177;SDS011;8195;51.220;9.746;2023-02-23T07:17:11;70.17;;;51.77;;
16177;SDS011;8195;51.220;9.746;2023-02-23T07:27:11;70.83;;;52.03;;
16177;SDS011;8195;51.220;9.746;2023-02-23T07:37:12;69.63;;;52.03;;
16177;SDS011;8195;51.220;9.746;2023-02-23T07:47:13;70.80;;;52.80;;
16177;SDS011;8195;51.220;9.746;2023-02-23T07:57:13;73.27;;;53.07;;
16177;SDS011;8195;51.220;9.746;2023-02-23T08:07:14;75.67;;;54.57;;
16177;SDS011;8195;51.220;9.746;2023-02-23T08:17:15;76.27;;;53.77;;
16177;SDS011;8195;51.220;9.746;2023-02-23T08:27:16;66.40;;;50.53;;
16177;SDS011;8195;51.220;9.746;2023-02-23T08:37:17;73.27;;;49.03;;
16177;SDS011;8195;51.220;9.746;2023-02-23T08:47:18;70.83;;;51.07;;
16177;SDS011;8195;51.220;9.746;2023-02-23T08:57:19;70.27;;;52.13;;
16177;SDS011;8195;51.220;9.746;2023-02-23T09:07:20;66.30;;;48.57;;
16177;SDS011;8195;51.220;9.746;2023-02-23T09:17:21;63.87;;;47.47;;
16177;SDS011;8195;51.220;9.746;2023-02-23T09:27:22;62.67;;;48.33;;
16177;SDS011;8195;51.220;9.746;2023-02-23T09:37:23;69.20;;;48.03;;
16177;SDS011;8195;51.220;9.746;2023-02-23T09:57:37;64.00;;;48.87;;
16177;SDS011;8195;51.220;9.746;2023-02-23T10:28:08;69.77;;;48.40;;
16177;SDS011;8195;51.220;9.746;2023-02-23T10:38:16;64.30;;;47.40;;
16177;SDS011;8195;51.220;9.746;2023-02-23T10:48:19;64.73;;;47.77;;
16177;SDS011;8195;51.220;9.746;2023-02-23T10:58:25;61.13;;;44.13;;
16177;SDS011;8195;51.220;9.746;2023-02-23T11:18:35;60.73;;;45.20;;
16177;SDS011;8195;51.220;9.746;2023-02-23T11:28:39;67.83;;;50.33;;
16177;SDS011;8195;51.220;9.746;2023-02-23T11:38:43;57.23;;;43.80;;
16177;SDS011;8195;51.220;9.746;2023-02-23T11:58:57;51.50;;;40.37;;
16177;SDS011;8195;51.220;9.746;2023-02-23T12:09:19;48.53;;;37.23;;
16177;SDS011;8195;51.220;9.746;2023-02-23T12:19:30;45.13;;;37.80;;
16177;SDS011;8195;51.220;9.746;2023-02-23T12:39:42;35.23;;;30.37;;
16177;SDS011;8195;51.220;9.746;2023-02-23T13:00:32;27.93;;;24.47;;
16177;SDS011;8195;51.220;9.746;2023-02-23T13:10:46;26.50;;;22.80;;
16177;SDS011;8195;51.220;9.746;2023-02-23T13:21:04;26.20;;;21.97;;
16177;SDS011;8195;51.220;9.746;2023-02-23T13:31:12;25.67;;;23.00;;
16177;SDS011;8195;51.220;9.746;2023-02-23T13:41:35;21.60;;;19.00;;
16177;SDS011;8195;51.220;9.746;2023-02-23T13:51:43;21.83;;;17.83;;
16177;SDS011;8195;51.220;9.746;2023-02-23T14:01:50;18.17;;;16.27;;
16177;SDS011;8195;51.220;9.746;2023-02-23T14:32:26;22.33;;;20.40;;
16177;SDS011;8195;51.220;9.746;2023-02-23T14:42:28;26.27;;;23.83;;
16177;SDS011;8195;51.220;9.746;2023-02-23T14:52:34;31.63;;;28.73;;
16177;SDS011;8195;51.220;9.746;2023-02-23T15:02:35;30.60;;;27.70;;
16177;SDS011;8195;51.220;9.746;2023-02-23T15:12:52;29.77;;;26.90;;
16177;SDS011;8195;51.220;9.746;2023-02-23T15:22:53;31.73;;;28.33;;
16177;SDS011;8195;51.220;9.746;2023-02-23T15:33:02;31.10;;;27.90;;
16177;SDS011;8195;51.220;9.746;2023-02-23T15:43:04;30.13;;;26.97;;
16177;SDS011;8195;51.220;9.746;2023-02-23T15:53:08;44.47;;;39.97;;
16177;SDS011;8195;51.220;9.746;2023-02-23T16:03:21;50.43;;;45.27;;
16177;SDS011;8195;51.220;9.746;2023-02-23T16:13:24;60.07;;;50.60;;
16177;SDS011;8195;51.220;9.746;2023-02-23T16:23:32;63.97;;;48.73;;
16177;SDS011;8195;51.220;9.746;2023-02-23T16:33:40;45.60;;;40.40;;
16177;SDS011;8195;51.220;9.746;2023-02-23T16:43:41;40.17;;;31.50;;
16177;SDS011;8195;51.220;9.746;2023-02-23T16:53:42;39.50;;;33.37;;
16177;SDS011;8195;51.220;9.746;2023-02-23T17:03:43;42.80;;;35.17;;
16177;SDS011;8195;51.220;9.746;2023-02-23T17:13:44;45.50;;;36.23;;
16177;SDS011;8195;51.220;9.746;2023-02-23T17:23:45;45.40;;;33.40;;
16177;SDS011;8195;51.220;9.746;2023-02-23T17:33:45;61.03;;;43.60;;
16177;SDS011;8195;51.220;9.746;2023-02-23T17:43:46;51.87;;;39.50;;
16177;SDS011;8195;51.220;9.746;2023-02-23T17:53:47;30.90;;;24.80;;
16177;SDS011;8195;51.220;9.746;2023-02-23T18:03:48;18.50;;;15.77;;
16177;SDS011;8195;51.220;9.746;2023-02-23T18:13:48;18.33;;;15.65;;
16177;SDS011;8195;51.220;9.746;2023-02-23T18:23:50;15.13;;;13.40;;
16177;SDS011;8195;51.220;9.746;2023-02-23T18:33:50;14.73;;;13.07;;
16177;SDS011;8195;51.220;9.746;2023-02-23T18:43:51;13.40;;;12.00;;
16177;SDS011;8195;51.220;9.746;2023-02-23T18:53:52;14.13;;;12.55;;
16177;SDS011;8195;51.220;9.746;2023-02-23T19:03:54;16.40;;;14.77;;
16177;SDS011;8195;51.220;9.746;2023-02-23T19:13:58;15.73;;;13.87;;
16177;SDS011;8195;51.220;9.746;2023-02-23T19:24:00;24.27;;;20.00;;
16177;SDS011;8195;51.220;9.746;2023-02-23T19:34:01;28.37;;;22.73;;
16177;SDS011;8195;51.220;9.746;2023-02-23T19:54:12;16.03;;;14.53;;
16177;SDS011;8195;51.220;9.746;2023-02-23T20:04:13;11.70;;;10.60;;
16177;SDS011;8195;51.220;9.746;2023-02-23T20:14:14;10.57;;;8.77;;
16177;SDS011;8195;51.220;9.746;2023-02-23T20:24:15;10.10;;;8.90;;
16177;SDS011;8195;51.220;9.746;2023-02-23T20:34:17;8.67;;;7.77;;
16177;SDS011;8195;51.220;9.746;2023-02-23T20:44:20;12.30;;;9.97;;
16177;SDS011;8195;51.220;9.746;2023-02-23T20:54:23;8.27;;;7.13;;
16177;SDS011;8195;51.220;9.746;2023-02-23T21:04:23;8.77;;;7.47;;
16177;SDS011;8195;51.220;9.746;2023-02-23T21:14:24;9.13;;;7.70;;
16177;SDS011;8195;51.220;9.746;2023-02-23T21:24:25;9.43;;;7.73;;
16177;SDS011;8195;51.220;9.746;2023-02-23T21:34:25;11.47;;;9.20;;
16177;SDS011;8195;51.220;9.746;2023-02-23T21:44:26;15.77;;;11.37;;
16177;SDS011;8195;51.220;9.746;2023-02-23T21:54:30;20.37;;;10.20;;
16177;SDS011;8195;51.220;9.746;2023-02-23T22:04:31;13.03;;;9.30;;
16177;SDS011;8195;51.220;9.746;2023-02-23T22:14:32;15.07;;;10.30;;
16177;SDS011;8195;51.220;9.746;2023-02-23T22:24:32;27.67;;;10.67;;
16177;SDS011;8195;51.220;9.746;2023-02-23T22:34:33;11.23;;;8.40;;
16177;SDS011;8195;51.220;9.746;2023-02-23T22:44:35;13.67;;;8.53;;
16177;SDS011;8195;51.220;9.746;2023-02-23T22:54:37;14.23;;;9.47;;
16177;SDS011;8195;51.220;9.746;2023-02-23T23:04:37;17.40;;;11.27;;
16177;SDS011;8195;51.220;9.746;2023-02-23T23:14:38;20.33;;;13.20;;
16177;SDS011;8195;51.220;9.746;2023-02-23T23:24:39;17.60;;;12.87;;
16177;SDS011;8195;51.220;9.746;2023-02-23T23:34:40;26.50;;;16.47;;
16177;SDS011;8195;51.220;9.746;2023-02-23T23:44:43;26.13;;;17.50;;
16177;SDS011;8195;51.220;9.746;2023-02-23T23:54:44;33.90;;;18.23;;
